Friday, May 06, 2016
18:48 UTC
  |  Log In   |  Register Free
Airport Search:

Williamsburg-Jamestown Airport
(KJGG)

Williamsburg-Jamestown Airport Diagram
No Airport Diagram Available

FAA data valid effective Mar 31 2016 - May 26 2016 (unless otherwise noted).

 
 
 
 
 
 
 
 
 
 
 
 
 
 
Current Aviation Weather for KJGG

Weather Summary


The most recent METAR observation for JGG was updated at: 12:55 UTC
METAR for KJGG is not available. Closest METAR is for KFYJ
KJGG  (most recent observation was updatred at 61:83 UTC)
061835Z AUTO 00000KT CLR 14/11 A2970 RMK AO1

KFYJ  (17.1 nm SE)   (most recent observation was updated at 61:83 UTC)
061835Z AUTO 15003KT 10SM SCT011 BKN029 OVC033 12/10 A2970 RMK AO2 T01200097

KW96  (25.2 nm SE)   (most recent observation was updated at 61:83 UTC)
061835Z AUTO 27006KT 10SM SCT011 BKN016 OVC022 14/12 A2968 RMK AO1 T01360115

TAF for KJGG is not available.
KFAF  (8.2 nm NW)   (most recent observation was updatred at 61:80 UTC)
061800Z 0618/0724 32009KT 8000 -RA SCT008 BKN013 OVC040 620609 QNH2967INS TEMPO 0618/0621 BKN009 OVC013 BECMG 0621/0622 30009KT 9999 NSW SCT015 BKN060 610653 QNH2971INS BECMG 0720/0721 29009KT 9999 SCT030 QNH2975INS TX20/0718Z TN11/0708Z LAST NO AMDS AFT 0703 NEXT 0710


KPHF  (12.5 nm NW)   (most recent observation was updatred at 61:74 UTC)
061742Z 0618/0718 28005KT P6SM -RA SCT005 BKN022 TEMPO 0618/0620 4SM -RA BR BKN008 OVC018 FM062000 32005KT P6SM SCT012 BKN035 TEMPO 0620/0623 5SM -SHRA BR BKN015 FM070500 29003KT 5SM BR OVC015 FM071300 30006KT P6SM SCT015 BKN035


KLFI  (19.4 nm NW)   (most recent observation was updatred at 61:73 UTC)
AMD 061736Z 0617/0723 32009KT 8000 -RA FEW015 BKN045 620609 QNH2968INS TEMPO 0617/0622 SCT008 BKN015 OVC045 BECMG 0621/0622 30009KT 9999 NSW SCT015 BKN060 610653 QNH2974INS BECMG 0720/0721 29009KT 9999 SCT030 QNH2978INS TX16/0620Z TN11/0708Z
GlobalAir.com is loading additional information.
 Current Weather at JGG
54.0 F° (12.0 C°)

North winds at 0.0 mph
Pressure:
29.71 in
Humidity:
100%
Wind:
North at 0.0 mph
Dew Point:
53.6 F° (12.0 C°)
Visibility:
10.00 mi
JGG NOAA Radar




Find All Airport Services Find A Hotel Find A Rental Car Find A Golf Course Find A Restaurant $100 Hamburger



Airport Weather Forecast for KJGG

Translated METAR for KJGG (1835 UTC)
METAR:
KJGG 061835Z AUTO 00000KT CLR 14/11 A2970 RMK AO1
Conditions at:
KJGG (Williamsburg-Jamestown, VA) observed 1835 UTC 06 May 2016
Temperature:
14°C (57.2°F)
Dewpoint:
not reported - refer to area weather report
Pressure:
29.7 inches Hg (1005.8 mb)
Winds:
from the N (000 degrees) at 0 mph (0 knots: 0 m/s)
Visibility:
10.00
Ceiling:
at least 12,000 feet AGL
Clouds:
not reported - refer to area weather report
Remarks:
site is un-manned
site is automated and does NOT have a precipitation sensor

Translated TAF for KFAF (Felker Aaf, VA) (1800 UTC)
TAF text:
KFAF 061800Z 0618/0724 32009KT 8000 -RA SCT008 BKN013 OVC040 620609 QNH2967INS
Forecast period:
Friday May 06 2016 18:00 UTC - Saturday May 07 2016 24:00 UTC
Forecast type:
FROM: standard forecast or significant change
Winds:
from the NW (320 degrees) at 10.4 mph (9 knots: 4.6 m/s)
Visibility:
Ceiling:
1,300 feet AGL
Clouds:
Scattered Clouds at 800 feet AGL
Broken Cloud Cover at 1,300 feet AGL
Overcast Skies at 4,000 feet AGL
Weather:
Light Rain
TAF text:
0618/0621 BKN009 OVC013 BECMG 0621/0622 30009KT 9999 NSW SCT015 BKN060 610653 QNH2971INS BECMG 0720/0721 29009KT 9999 SCT030 QNH2975INS TX20/0718Z TN11/0708Z LAST NO AMDS AFT 0703 NEXT 0710
Forecast period:
Saturday May 07 2016 18:00 UTC - Saturday May 07 2016 21:00 UTC
Forecast type:
FROM: standard forecast or significant change
Winds:
from the WNW (290 degrees) at 10.4 mph (9 knots: 4.6 m/s)
Visibility:
Ceiling:
900 feet AGL
6,000 feet AGL
at least 12,000 feet AGL
Clouds:
Broken Cloud Cover at 900 feet AGL
Overcast Skies at 1,300 feet AGL
Scattered Clouds at 1,500 feet AGL
Broken Cloud Cover at 6,000 feet AGL
Scattered Clouds at 3,000 feet AGL
Weather:
no significant weather observed at this time
FBO's on the Field
FBO Company Facility Photos Services Transportation Aviation Fuel Prices: Prices include tax
Catering Weather Repair Courtesy Rental Type 100LL JetA JetA+ MOGAS 8087
 
Williamsburg-Jamestown

This FBO has not yet been rated
FS:Shell
Last Updated: Apr-26
Login to update fuel prices
SS:
Contact Williamsburg-JamestownMore FBO Information
 
Add another FBO Facility Photos Catering Weather Repair Courtesy Rental Type 100LL JetA JetA+ MOGAS 8087
Services Transportation Aviation Fuel Prices: Prices include tax


model-print
model-print
model-print
model-print